createdAt,value
2023-05-20T00:00:28.684Z,10.32
2023-05-20T00:03:38.797Z,10.32
2023-05-20T00:06:46.841Z,10.32
2023-05-20T00:09:53.724Z,10.31
2023-05-20T00:12:53.368Z,10.29
2023-05-20T00:16:00.304Z,10.28
2023-05-20T00:19:07.347Z,10.28
2023-05-20T00:22:14.345Z,10.29
2023-05-20T00:25:21.754Z,10.27
2023-05-20T00:28:28.345Z,10.25
2023-05-20T00:31:35.797Z,10.23
2023-05-20T00:34:49.149Z,10.23
2023-05-20T00:37:54.877Z,10.24
2023-05-20T00:41:01.937Z,10.22
2023-05-20T00:44:15.064Z,10.23
2023-05-20T00:47:21.833Z,10.20
2023-05-20T00:50:29.818Z,10.20
2023-05-20T00:53:40.705Z,10.17
2023-05-20T00:56:48.375Z,10.17
2023-05-20T00:59:55.395Z,10.15
2023-05-20T01:03:02.551Z,10.13
2023-05-20T01:06:29.610Z,10.11
2023-05-20T01:09:36.416Z,10.10
2023-05-20T01:13:04.206Z,10.09
2023-05-20T01:16:12.260Z,10.09
2023-05-20T01:19:19.265Z,10.10
2023-05-20T01:22:26.307Z,10.12
2023-05-20T01:25:33.451Z,10.13
2023-05-20T01:28:40.787Z,10.13
2023-05-20T01:31:49.772Z,10.15
2023-05-20T01:34:56.772Z,10.15
2023-05-20T01:37:54.594Z,10.16
2023-05-20T01:41:01.698Z,10.15
2023-05-20T01:44:08.636Z,10.16
2023-05-20T01:47:15.778Z,10.18
2023-05-20T01:50:22.632Z,10.20
2023-05-20T01:53:30.345Z,10.20
2023-05-20T01:56:37.346Z,10.21
2023-05-20T01:59:44.254Z,10.22
2023-05-20T02:02:51.436Z,10.24
2023-05-20T02:05:58.145Z,10.25
2023-05-20T02:09:05.024Z,10.26
2023-05-20T02:12:11.923Z,10.27
2023-05-20T02:15:19.317Z,10.28
2023-05-20T02:18:26.503Z,10.29
2023-05-20T02:21:36.282Z,10.30
2023-05-20T02:24:43.497Z,10.31
2023-05-20T02:27:50.517Z,10.32
2023-05-20T02:30:57.595Z,10.35
2023-05-20T02:33:53.657Z,10.36
2023-05-20T02:36:54.485Z,10.37
2023-05-20T02:40:01.488Z,10.37
2023-05-20T02:42:53.486Z,10.39
2023-05-20T02:46:01.368Z,10.39
2023-05-20T02:49:08.353Z,10.41
2023-05-20T02:52:15.390Z,10.41
2023-05-20T02:55:22.385Z,10.42
2023-05-20T02:58:29.384Z,10.42
2023-05-20T03:01:22.029Z,10.43
2023-05-20T03:04:27.550Z,10.44
2023-05-20T03:07:34.816Z,10.45
2023-05-20T03:10:45.172Z,10.47
2023-05-20T03:13:52.176Z,10.48
2023-05-20T03:16:59.148Z,10.50
2023-05-20T03:20:07.164Z,10.51
2023-05-20T03:23:18.325Z,10.52
2023-05-20T03:26:45.693Z,10.54
2023-05-20T03:29:53.623Z,10.55
2023-05-20T03:33:00.631Z,10.57
2023-05-20T03:36:08.591Z,10.60
2023-05-20T03:39:15.690Z,10.63
2023-05-20T03:42:22.690Z,10.66
2023-05-20T03:45:49.526Z,10.70
2023-05-20T03:48:57.105Z,10.74
2023-05-20T03:52:04.013Z,10.78
2023-05-20T03:55:11.567Z,10.82
2023-05-20T03:58:18.600Z,10.84
2023-05-20T04:01:25.486Z,10.88
2023-05-20T04:04:22.483Z,10.91
2023-05-20T04:07:29.468Z,10.94
2023-05-20T04:10:36.538Z,10.99
2023-05-20T04:13:37.146Z,11.05
2023-05-20T04:16:43.275Z,11.12
2023-05-20T04:19:50.456Z,11.21
2023-05-20T04:22:57.558Z,11.27
2023-05-20T04:26:04.812Z,11.33
2023-05-20T04:29:11.379Z,11.42
2023-05-20T04:32:18.416Z,11.51
2023-05-20T04:35:25.850Z,11.58
2023-05-20T04:38:32.896Z,11.65
2023-05-20T04:41:39.769Z,11.69
2023-05-20T04:44:47.002Z,11.73
2023-05-20T04:47:53.994Z,11.78
2023-05-20T04:51:07.881Z,11.85
2023-05-20T04:54:26.485Z,11.90
2023-05-20T04:57:33.339Z,11.94
2023-05-20T05:00:40.306Z,12.00
2023-05-20T05:04:08.680Z,12.04
2023-05-20T05:07:35.784Z,12.07
2023-05-20T05:10:43.120Z,12.08
2023-05-20T05:13:55.494Z,12.09
2023-05-20T05:17:04.550Z,12.09
2023-05-20T05:20:11.475Z,12.08
2023-05-20T05:23:18.601Z,12.06
2023-05-20T05:26:30.382Z,12.09
2023-05-20T05:29:46.109Z,12.12
2023-05-20T05:32:45.746Z,12.16
2023-05-20T05:35:52.724Z,12.26
2023-05-20T05:38:59.756Z,12.36
2023-05-20T05:41:49.724Z,12.47
2023-05-20T05:45:05.906Z,12.57
2023-05-20T05:48:13.042Z,12.67
2023-05-20T05:51:20.531Z,12.77
2023-05-20T05:54:27.684Z,12.90
2023-05-20T05:57:36.966Z,13.01
2023-05-20T06:00:44.730Z,13.08
2023-05-20T06:03:51.502Z,13.22
2023-05-20T06:06:59.087Z,13.35
2023-05-20T06:10:06.033Z,13.48
2023-05-20T06:13:19.304Z,13.63
2023-05-20T06:16:26.775Z,13.79
2023-05-20T06:19:34.322Z,13.91
2023-05-20T06:23:01.942Z,14.10
2023-05-20T06:26:17.527Z,14.29
2023-05-20T06:29:26.562Z,14.50
2023-05-20T06:32:33.882Z,14.63
2023-05-20T06:35:42.161Z,14.77
2023-05-20T06:38:53.549Z,14.88
2023-05-20T06:42:09.555Z,14.87
2023-05-20T06:45:10.048Z,14.95
2023-05-20T06:48:23.024Z,15.03
2023-05-20T06:51:31.827Z,15.07
2023-05-20T06:54:38.723Z,15.12
2023-05-20T06:57:36.331Z,15.18
2023-05-20T07:00:43.880Z,15.39
2023-05-20T07:03:51.041Z,15.56
2023-05-20T07:06:58.047Z,15.65
2023-05-20T07:09:57.664Z,15.77
2023-05-20T07:13:04.534Z,15.85
2023-05-20T07:16:11.819Z,15.90
2023-05-20T07:19:18.824Z,15.93
2023-05-20T07:22:19.258Z,15.97
2023-05-20T07:25:36.388Z,15.98
2023-05-20T07:28:43.305Z,15.97
2023-05-20T07:31:50.255Z,16.00
2023-05-20T07:34:59.366Z,16.05
2023-05-20T07:38:07.159Z,16.11
2023-05-20T07:41:14.323Z,16.12
2023-05-20T07:44:24.320Z,16.17
2023-05-20T07:47:31.023Z,16.22
2023-05-20T07:50:38.091Z,16.26
2023-05-20T07:53:45.127Z,16.32
2023-05-20T07:56:52.124Z,16.34
2023-05-20T08:00:01.391Z,16.41
2023-05-20T08:03:08.660Z,16.47
2023-05-20T08:06:19.683Z,16.55
2023-05-20T08:09:26.602Z,16.69
2023-05-20T08:12:41.721Z,16.72
2023-05-20T08:15:49.617Z,16.66
2023-05-20T08:18:56.942Z,16.61
2023-05-20T08:22:05.913Z,16.54
2023-05-20T08:25:13.080Z,16.61
2023-05-20T08:28:22.365Z,16.67
2023-05-20T08:31:29.625Z,16.67
2023-05-20T08:34:40.182Z,16.63
2023-05-20T08:41:15.083Z,16.94
2023-05-20T08:44:36.928Z,17.01
2023-05-20T08:47:44.250Z,17.02
2023-05-20T08:50:51.341Z,17.15
2023-05-20T08:54:21.687Z,17.16
2023-05-20T08:58:11.353Z,17.04
2023-05-20T09:01:18.380Z,17.19
2023-05-20T09:04:18.217Z,17.35
2023-05-20T09:07:25.245Z,17.58
2023-05-20T09:10:14.896Z,17.75
2023-05-20T09:13:23.815Z,17.91
2023-05-20T09:16:31.048Z,18.15
2023-05-20T09:19:38.894Z,18.43
2023-05-20T09:22:45.933Z,18.71
2023-05-20T09:25:53.038Z,18.92
2023-05-20T09:29:00.026Z,19.14
2023-05-20T09:31:59.963Z,19.42
2023-05-20T09:35:07.012Z,19.60
2023-05-20T09:38:13.969Z,19.65
2023-05-20T09:41:21.254Z,19.56
2023-05-20T09:44:28.213Z,19.37
2023-05-20T09:47:35.751Z,19.24
2023-05-20T09:50:42.757Z,19.01
2023-05-20T09:53:42.180Z,18.89
2023-05-20T09:56:57.204Z,18.78
2023-05-20T09:59:58.636Z,18.79
2023-05-20T10:03:25.845Z,18.79
2023-05-20T10:06:33.197Z,18.79
2023-05-20T10:09:52.395Z,18.90
2023-05-20T10:12:59.361Z,18.83
2023-05-20T10:16:25.035Z,18.62
2023-05-20T10:19:32.961Z,18.42
2023-05-20T10:22:46.812Z,18.43
2023-05-20T10:25:53.683Z,18.41
2023-05-20T10:29:00.740Z,18.32
2023-05-20T10:32:08.782Z,18.27
2023-05-20T10:35:19.271Z,18.32
2023-05-20T10:38:28.916Z,18.32
2023-05-20T10:41:36.126Z,18.37
2023-05-20T10:45:02.982Z,18.45
2023-05-20T10:48:16.246Z,18.52
2023-05-20T10:51:23.392Z,18.82
2023-05-20T10:54:30.328Z,19.08
2023-05-20T10:57:39.218Z,19.24
2023-05-20T11:00:46.401Z,19.45
2023-05-20T11:03:53.528Z,19.64
2023-05-20T11:07:00.704Z,19.90
2023-05-20T11:10:10.747Z,20.18
2023-05-20T11:13:17.822Z,20.27
2023-05-20T11:16:24.965Z,20.33
2023-05-20T11:19:34.835Z,20.51
2023-05-20T11:22:41.959Z,20.61
2023-05-20T11:25:49.850Z,20.81
2023-05-20T11:28:59.266Z,21.23
2023-05-20T11:32:08.063Z,21.71
2023-05-20T11:35:19.370Z,22.70
2023-05-20T11:38:26.425Z,23.85
2023-05-20T11:41:33.754Z,23.90
2023-05-20T11:44:40.751Z,23.88
2023-05-20T11:47:48.021Z,23.37
2023-05-20T11:50:57.591Z,23.56
2023-05-20T11:54:05.849Z,25.92
2023-05-20T11:57:28.079Z,27.73
2023-05-20T12:00:49.245Z,27.52
2023-05-20T12:04:17.816Z,26.92
2023-05-20T12:07:27.537Z,26.64
2023-05-20T12:10:34.664Z,27.79
2023-05-20T12:13:41.929Z,29.52
2023-05-20T12:16:49.031Z,30.86
2023-05-20T12:19:57.232Z,31.67
2023-05-20T12:23:04.943Z,32.47
2023-05-20T12:26:12.081Z,33.06
2023-05-20T12:29:19.427Z,33.46
2023-05-20T12:32:28.632Z,34.00
2023-05-20T12:35:35.684Z,34.30
2023-05-20T12:38:42.716Z,34.64
2023-05-20T12:41:49.968Z,35.28
2023-05-20T12:44:49.713Z,35.74
2023-05-20T12:47:56.863Z,36.13
2023-05-20T12:51:04.072Z,36.38
2023-05-20T12:54:12.765Z,36.75
2023-05-20T12:57:19.636Z,37.17
2023-05-20T13:00:26.760Z,37.45
2023-05-20T13:03:33.722Z,37.99
2023-05-20T13:06:30.697Z,38.30
2023-05-20T13:09:37.751Z,38.58
2023-05-20T13:12:44.616Z,38.73
2023-05-20T13:15:41.472Z,39.16
2023-05-20T13:18:48.132Z,39.47
2023-05-20T13:21:55.278Z,39.53
2023-05-20T13:25:02.350Z,39.63
2023-05-20T13:28:09.489Z,39.64
2023-05-20T13:31:15.039Z,39.51
2023-05-20T13:34:22.106Z,39.52
2023-05-20T13:37:29.134Z,39.70
2023-05-20T13:40:36.221Z,40.17
2023-05-20T13:43:43.401Z,40.59
2023-05-20T13:46:50.277Z,40.49
2023-05-20T13:49:57.314Z,40.34
2023-05-20T13:52:55.073Z,40.29
2023-05-20T13:56:02.003Z,40.50
2023-05-20T13:59:10.033Z,40.58
2023-05-20T14:02:17.399Z,41.04
2023-05-20T14:05:24.550Z,41.51
2023-05-20T14:08:31.546Z,41.26
2023-05-20T14:11:38.722Z,40.89
2023-05-20T14:14:45.641Z,41.29
2023-05-20T14:17:52.707Z,41.43
2023-05-20T14:20:59.970Z,41.58
2023-05-20T14:23:59.570Z,41.80
2023-05-20T14:27:06.532Z,41.71
2023-05-20T14:30:13.351Z,41.83
2023-05-20T14:33:20.361Z,41.90
2023-05-20T14:36:27.331Z,41.68
2023-05-20T14:39:24.064Z,41.38
2023-05-20T14:42:31.074Z,41.28
2023-05-20T14:45:38.044Z,41.40
2023-05-20T14:48:45.105Z,41.35
2023-05-20T14:51:52.155Z,41.04
2023-05-20T14:54:59.029Z,40.98
2023-05-20T14:58:05.918Z,40.73
2023-05-20T15:01:12.962Z,40.28
2023-05-20T15:04:19.842Z,39.76
2023-05-20T15:07:27.103Z,39.41
2023-05-20T15:10:34.564Z,39.32
2023-05-20T15:13:41.950Z,39.51
2023-05-20T15:16:48.944Z,39.48
2023-05-20T15:19:56.924Z,39.34
2023-05-20T15:23:04.212Z,38.97
2023-05-20T15:26:11.112Z,39.05
2023-05-20T15:29:18.204Z,39.03
2023-05-20T15:32:33.914Z,39.11
2023-05-20T15:35:33.952Z,38.91
2023-05-20T15:38:41.783Z,38.89
2023-05-20T15:41:48.334Z,38.64
2023-05-20T15:44:55.280Z,38.41
2023-05-20T15:48:02.377Z,38.19
2023-05-20T15:51:09.529Z,37.85
2023-05-20T15:54:16.688Z,37.86
2023-05-20T15:57:23.730Z,37.86
2023-05-20T16:00:33.207Z,38.02
2023-05-20T16:03:26.195Z,38.09
2023-05-20T16:06:35.307Z,37.74
2023-05-20T16:09:42.447Z,37.40
2023-05-20T16:12:49.504Z,37.47
2023-05-20T16:15:56.500Z,37.39
2023-05-20T16:19:07.374Z,37.09
2023-05-20T16:22:14.640Z,36.90
2023-05-20T16:25:14.614Z,36.79
2023-05-20T16:28:14.287Z,36.12
2023-05-20T16:31:21.355Z,35.69
2023-05-20T16:34:28.313Z,35.49
2023-05-20T16:37:35.438Z,35.10
2023-05-20T16:40:42.387Z,34.72
2023-05-20T16:43:49.490Z,34.42
2023-05-20T16:46:54.929Z,34.11
2023-05-20T16:49:54.634Z,33.67
2023-05-20T16:53:02.080Z,33.10
2023-05-20T16:56:00.057Z,32.84
2023-05-20T16:59:08.141Z,32.61
2023-05-20T17:02:16.138Z,32.43
2023-05-20T17:05:26.612Z,31.79
2023-05-20T17:08:33.681Z,30.09
2023-05-20T17:11:34.538Z,28.63
2023-05-20T17:14:41.575Z,27.47
2023-05-20T17:17:48.711Z,26.49
2023-05-20T17:21:15.829Z,25.60
2023-05-20T17:24:15.353Z,24.91
2023-05-20T17:27:23.982Z,24.35
2023-05-20T17:30:30.984Z,23.87
2023-05-20T17:33:46.646Z,23.35
2023-05-20T17:36:53.828Z,22.92
2023-05-20T17:40:00.828Z,22.54
2023-05-20T17:43:07.745Z,22.24
2023-05-20T17:46:14.907Z,21.96
2023-05-20T17:49:22.045Z,21.70
2023-05-20T17:52:21.489Z,21.45
2023-05-20T17:55:28.682Z,21.28
2023-05-20T17:58:56.270Z,21.13
2023-05-20T18:02:25.107Z,20.92
2023-05-20T18:05:32.475Z,20.79
2023-05-20T18:08:31.075Z,20.61
2023-05-20T18:11:38.119Z,20.36
2023-05-20T18:14:45.225Z,20.14
2023-05-20T18:17:52.916Z,19.98
2023-05-20T18:20:59.967Z,19.82
2023-05-20T18:23:57.023Z,19.62
2023-05-20T18:27:05.086Z,19.43
2023-05-20T18:30:12.791Z,19.31
2023-05-20T18:33:24.461Z,19.17
2023-05-20T18:36:33.556Z,19.02
2023-05-20T18:40:27.330Z,18.84
2023-05-20T18:43:17.129Z,18.67
2023-05-20T18:46:24.513Z,18.51
2023-05-20T18:49:32.551Z,18.36
2023-05-20T18:52:43.141Z,18.20
2023-05-20T18:55:50.506Z,18.02
2023-05-20T18:59:01.601Z,17.85
2023-05-20T19:02:15.222Z,17.70
2023-05-20T19:05:24.322Z,17.62
2023-05-20T19:08:51.454Z,17.55
2023-05-20T19:12:35.240Z,17.45
2023-05-20T19:16:05.206Z,17.33
2023-05-20T19:19:33.561Z,17.24
2023-05-20T19:22:31.358Z,17.16
2023-05-20T19:25:58.709Z,17.08
2023-05-20T19:29:27.409Z,16.96
2023-05-20T19:32:34.700Z,16.80
2023-05-20T19:35:42.998Z,16.67
2023-05-20T19:39:10.430Z,16.59
2023-05-20T19:42:37.312Z,16.49
2023-05-20T19:45:46.397Z,16.45
2023-05-20T19:48:54.208Z,16.41
2023-05-20T19:52:21.294Z,16.33
2023-05-20T19:55:29.560Z,16.24
2023-05-20T19:58:56.986Z,16.12
2023-05-20T20:02:33.592Z,15.95
2023-05-20T20:06:18.167Z,15.80
2023-05-20T20:09:47.455Z,15.69
2023-05-20T20:12:55.774Z,15.62
2023-05-20T20:16:03.275Z,15.54
2023-05-20T20:19:26.927Z,15.49
2023-05-20T20:22:38.275Z,15.43
2023-05-20T20:25:46.395Z,15.40
2023-05-20T20:28:53.510Z,15.36
2023-05-20T20:32:00.492Z,15.32
2023-05-20T20:35:06.955Z,15.25
2023-05-20T20:38:13.643Z,15.18
2023-05-20T20:41:20.768Z,15.14
2023-05-20T20:44:30.766Z,15.10
2023-05-20T20:47:46.428Z,15.08
2023-05-20T20:50:53.697Z,15.04
2023-05-20T20:54:01.655Z,14.98
2023-05-20T20:57:08.578Z,14.94
2023-05-20T21:00:15.758Z,14.91
2023-05-20T21:03:23.160Z,14.87
2023-05-20T21:06:34.526Z,14.83
2023-05-20T21:09:41.940Z,14.78
2023-05-20T21:13:10.999Z,14.74
2023-05-20T21:16:21.332Z,14.74
2023-05-20T21:19:28.798Z,14.73
2023-05-20T21:22:44.381Z,14.71
2023-05-20T21:26:00.923Z,14.69
2023-05-20T21:29:08.632Z,14.66
2023-05-20T21:32:17.038Z,14.67
2023-05-20T21:35:24.449Z,14.69
2023-05-20T21:38:31.645Z,14.67
2023-05-20T21:41:38.536Z,14.66
2023-05-20T21:44:45.623Z,14.66
2023-05-20T21:47:55.691Z,14.67
2023-05-20T21:51:11.358Z,14.66
2023-05-20T21:54:18.544Z,14.63
2023-05-20T21:57:29.408Z,14.59
2023-05-20T22:00:36.641Z,14.53
2023-05-20T22:04:03.745Z,14.51
2023-05-20T22:07:18.978Z,14.47
2023-05-20T22:10:35.577Z,14.42
2023-05-20T22:13:42.672Z,14.39
2023-05-20T22:16:50.906Z,14.37
2023-05-20T22:19:58.040Z,14.36
2023-05-20T22:23:08.027Z,14.33
2023-05-20T22:26:08.734Z,14.30
2023-05-20T22:29:18.425Z,14.24
2023-05-20T22:32:26.529Z,14.18
2023-05-20T22:35:34.357Z,14.14
2023-05-20T22:39:21.290Z,14.10
2023-05-20T22:42:32.662Z,14.06
2023-05-20T22:45:39.972Z,14.00
2023-05-20T22:49:17.152Z,13.95
2023-05-20T22:52:24.839Z,13.94
2023-05-20T22:55:32.566Z,13.95
2023-05-20T22:58:43.826Z,13.93
2023-05-20T23:01:51.010Z,13.90
2023-05-20T23:04:59.504Z,13.86
2023-05-20T23:08:22.437Z,13.82
2023-05-20T23:11:29.717Z,13.78
2023-05-20T23:14:44.024Z,13.74
2023-05-20T23:18:11.029Z,13.66
2023-05-20T23:21:21.352Z,13.60
2023-05-20T23:24:28.227Z,13.55
2023-05-20T23:27:34.955Z,13.50
2023-05-20T23:30:45.941Z,13.46
2023-05-20T23:33:53.338Z,13.44
2023-05-20T23:37:00.569Z,13.44
2023-05-20T23:40:09.172Z,13.44
2023-05-20T23:43:16.297Z,13.47
2023-05-20T23:46:43.356Z,13.48
2023-05-20T23:49:51.495Z,13.50
2023-05-20T23:52:58.571Z,13.56
2023-05-20T23:56:05.609Z,13.60
2023-05-20T23:59:13.058Z,13.64
